Time;durP1;ratioP1;P1;durP2;ratioP2;P2;SDS_P1;SDS_P2;PMS_P1;PMS_P2;Temp;Humidity;BMP_temperature;BMP_pressure;BME280_temperature;BME280_humidity;BME280_pressure;Samples;Min_cycle;Max_cycle;Signal;HPM_P1;HPM_P2
2021/09/20 00:00:40;;;;;;;13.82;9.15;;;8.70;99.90;;;;;;5094596;28;20115;-76
2021/09/20 00:03:06;;;;;;;14.25;9.60;;;8.70;99.90;;;;;;5092853;28;20070;-76
2021/09/20 00:05:32;;;;;;;15.60;10.35;;;8.70;99.90;;;;;;5095988;28;20024;-76
2021/09/20 00:07:58;;;;;;;13.77;9.07;;;8.70;99.90;;;;;;5090268;28;20512;-76
2021/09/20 00:10:23;;;;;;;17.67;10.50;;;8.80;99.90;;;;;;5095864;28;20055;-76
2021/09/20 00:12:49;;;;;;;15.82;10.35;;;8.80;99.90;;;;;;5092301;28;20040;-76
2021/09/20 00:15:15;;;;;;;13.73;10.15;;;8.80;99.90;;;;;;5094495;28;20066;-76
2021/09/20 00:17:41;;;;;;;16.77;10.50;;;8.80;99.90;;;;;;5094884;28;20394;-76
2021/09/20 00:20:09;;;;;;;17.50;11.20;;;8.80;99.90;;;;;;5094266;28;20032;-76
2021/09/20 00:22:35;;;;;;;14.77;10.82;;;8.80;99.90;;;;;;5094579;28;20081;-76
2021/09/20 00:25:01;;;;;;;16.25;11.23;;;8.80;99.90;;;;;;5093996;28;20024;-76
2021/09/20 00:27:27;;;;;;;16.33;11.38;;;8.80;99.90;;;;;;5093651;28;20441;-76
2021/09/20 00:29:52;;;;;;;17.17;11.27;;;8.80;99.90;;;;;;5094675;28;20029;-76
2021/09/20 00:32:19;;;;;;;19.83;11.77;;;8.80;99.90;;;;;;5094188;28;20123;-76
2021/09/20 00:34:45;;;;;;;16.77;11.40;;;8.90;99.90;;;;;;5092117;28;20055;-76
2021/09/20 00:37:11;;;;;;;18.38;10.15;;;8.90;99.90;;;;;;5093793;28;20047;-76
2021/09/20 00:39:37;;;;;;;17.75;12.25;;;8.90;99.90;;;;;;5076061;28;20446;-76
2021/09/20 00:42:04;;;;;;;19.00;10.70;;;8.90;99.90;;;;;;5074945;28;20489;-76
2021/09/20 00:44:30;;;;;;;16.27;10.90;;;8.90;99.90;;;;;;5084055;28;20031;-76
2021/09/20 00:46:55;;;;;;;18.25;11.15;;;8.90;99.90;;;;;;5095226;28;20020;-77
2021/09/20 00:49:21;;;;;;;17.40;11.18;;;8.90;99.90;;;;;;5081232;28;20027;-76
2021/09/20 00:51:47;;;;;;;20.48;11.65;;;8.90;99.90;;;;;;5087420;28;20102;-77
2021/09/20 00:54:12;;;;;;;15.10;10.80;;;8.90;99.90;;;;;;5092605;28;20020;-76
2021/09/20 00:56:39;;;;;;;17.95;11.48;;;8.90;99.90;;;;;;5094513;28;20024;-77
2021/09/20 00:59:05;;;;;;;17.58;11.80;;;8.90;99.90;;;;;;5075320;28;20032;-76
2021/09/20 01:01:32;;;;;;;17.42;11.43;;;8.90;99.90;;;;;;5094824;28;20031;-76
2021/09/20 01:03:58;;;;;;;18.52;11.70;;;8.90;99.90;;;;;;5090252;28;20113;-76
2021/09/20 01:06:23;;;;;;;16.60;10.52;;;9.00;99.90;;;;;;5092523;28;20442;-76
2021/09/20 01:08:49;;;;;;;19.10;12.23;;;9.00;99.90;;;;;;5083152;28;20035;-76
2021/09/20 01:11:15;;;;;;;18.05;12.65;;;9.00;99.90;;;;;;5073107;28;20474;-76
2021/09/20 01:13:41;;;;;;;15.57;11.63;;;9.00;99.90;;;;;;5083103;28;20359;-76
2021/09/20 01:16:06;;;;;;;17.73;11.52;;;9.00;99.90;;;;;;5094458;28;20022;-76
2021/09/20 01:18:32;;;;;;;16.65;11.43;;;9.00;99.90;;;;;;5092384;28;20020;-76
2021/09/20 01:20:58;;;;;;;17.45;10.73;;;9.00;99.90;;;;;;5094249;28;20451;-76
2021/09/20 01:23:24;;;;;;;16.63;11.23;;;9.00;99.90;;;;;;5093078;28;20020;-76
2021/09/20 01:25:49;;;;;;;22.67;12.52;;;8.90;99.90;;;;;;5092939;28;20023;-76
2021/09/20 01:28:15;;;;;;;17.58;11.65;;;9.00;99.90;;;;;;5090013;28;20070;-76
2021/09/20 01:30:41;;;;;;;15.95;11.35;;;8.90;99.90;;;;;;5072748;28;20477;-77
2021/09/20 01:33:06;;;;;;;18.80;12.48;;;8.90;99.90;;;;;;5082427;28;20077;-76
2021/09/20 01:35:32;;;;;;;19.00;11.70;;;8.90;99.90;;;;;;5093126;28;20107;-77
2021/09/20 01:37:58;;;;;;;16.33;11.43;;;8.90;99.90;;;;;;5089571;28;20027;-76
2021/09/20 01:40:25;;;;;;;16.23;11.93;;;8.90;99.90;;;;;;5072494;28;20036;-77
2021/09/20 01:42:51;;;;;;;14.82;11.43;;;8.90;99.90;;;;;;5076252;28;20020;-76
2021/09/20 01:45:17;;;;;;;18.42;12.27;;;8.90;99.90;;;;;;5093822;28;20020;-76
2021/09/20 01:47:43;;;;;;;18.85;13.07;;;8.90;99.90;;;;;;5089434;28;20024;-76
2021/09/20 01:50:10;;;;;;;15.93;11.75;;;8.90;99.90;;;;;;5082214;28;20021;-76
2021/09/20 01:52:37;;;;;;;14.98;11.60;;;8.90;99.90;;;;;;5092206;28;20038;-76
2021/09/20 01:55:05;;;;;;;22.23;12.50;;;8.90;99.90;;;;;;5077264;28;20163;-76
2021/09/20 01:57:31;;;;;;;17.83;11.70;;;8.90;99.90;;;;;;5073425;28;20023;-76
2021/09/20 01:59:56;;;;;;;19.33;11.98;;;8.90;99.90;;;;;;5092805;28;20123;-76
2021/09/20 02:02:22;;;;;;;20.88;12.95;;;8.90;99.90;;;;;;5090936;28;20054;-76
2021/09/20 02:04:48;;;;;;;22.25;13.05;;;8.90;99.90;;;;;;5091372;28;20412;-76
2021/09/20 02:07:14;;;;;;;15.88;11.52;;;8.90;99.90;;;;;;5092310;28;20032;-76
2021/09/20 02:09:40;;;;;;;15.82;11.50;;;9.00;99.90;;;;;;5080013;28;20028;-76
2021/09/20 02:12:06;;;;;;;16.08;11.52;;;9.00;99.90;;;;;;5071996;28;20024;-76
2021/09/20 02:14:32;;;;;;;17.48;12.07;;;9.00;99.90;;;;;;5088924;28;20021;-76
2021/09/20 02:16:57;;;;;;;18.35;11.70;;;9.00;99.90;;;;;;5092095;28;20028;-76
2021/09/20 02:19:23;;;;;;;13.45;10.80;;;9.00;99.90;;;;;;5077751;28;20046;-76
2021/09/20 02:21:49;;;;;;;15.90;11.02;;;8.90;99.90;;;;;;5100814;28;20190;-76
2021/09/20 02:24:14;;;;;;;14.45;11.60;;;9.00;99.90;;;;;;5089234;28;20052;-76
2021/09/20 02:26:40;;;;;;;19.90;11.48;;;9.00;99.90;;;;;;5085651;28;20020;-76
2021/09/20 02:29:06;;;;;;;14.45;10.65;;;9.00;99.90;;;;;;5083778;28;20032;-76
2021/09/20 02:31:32;;;;;;;13.20;9.77;;;9.00;99.90;;;;;;5093257;28;20028;-76
2021/09/20 02:33:58;;;;;;;14.25;9.73;;;9.00;99.90;;;;;;5091819;28;20024;-76
2021/09/20 02:36:23;;;;;;;14.15;10.05;;;8.90;99.90;;;;;;5093182;28;20494;-76
2021/09/20 02:38:49;;;;;;;13.02;9.68;;;9.00;99.90;;;;;;5082780;28;20028;-76
2021/09/20 02:41:16;;;;;;;11.82;8.48;;;9.00;99.90;;;;;;5077270;28;20032;-77
2021/09/20 02:43:42;;;;;;;10.45;8.13;;;9.00;99.90;;;;;;5089677;28;20433;-76
2021/09/20 02:46:08;;;;;;;11.82;8.95;;;9.00;99.90;;;;;;5092715;28;20063;-77
2021/09/20 02:48:34;;;;;;;11.02;7.78;;;9.00;99.90;;;;;;5088173;28;20107;-76
2021/09/20 02:51:00;;;;;;;12.27;8.90;;;9.00;99.90;;;;;;5091457;28;20048;-76
2021/09/20 02:53:26;;;;;;;12.48;8.75;;;9.00;99.90;;;;;;5091711;28;20447;-76
2021/09/20 02:55:51;;;;;;;13.73;10.95;;;9.00;99.90;;;;;;5092761;28;20107;-76
2021/09/20 02:58:17;;;;;;;12.63;9.48;;;9.00;99.90;;;;;;5088487;28;20024;-76
2021/09/20 03:00:43;;;;;;;10.85;8.65;;;9.00;99.90;;;;;;5091457;28;20119;-77
2021/09/20 03:03:08;;;;;;;12.70;8.55;;;9.00;99.90;;;;;;5089121;28;20081;-76
2021/09/20 03:05:38;;;;;;;11.35;8.57;;;9.00;99.90;;;;;;5091618;28;20016;-77
2021/09/20 03:08:04;;;;;;;13.10;8.65;;;9.10;99.90;;;;;;5079903;28;20450;-76
2021/09/20 03:10:31;;;;;;;10.57;7.30;;;9.10;99.90;;;;;;5092795;28;20465;-76
2021/09/20 03:12:56;;;;;;;13.25;8.70;;;9.10;99.90;;;;;;5089899;28;20241;-76
2021/09/20 03:15:23;;;;;;;12.65;8.43;;;9.00;99.90;;;;;;5091465;28;20016;-76
2021/09/20 03:17:48;;;;;;;10.68;8.57;;;9.10;99.90;;;;;;5089407;28;20028;-76
2021/09/20 03:20:15;;;;;;;11.73;8.32;;;9.10;99.90;;;;;;5077712;28;20036;-76
2021/09/20 03:22:41;;;;;;;15.15;8.73;;;9.10;99.90;;;;;;5075417;28;20422;-76
2021/09/20 03:25:09;;;;;;;10.57;7.93;;;9.10;99.90;;;;;;5084810;28;20013;-76
2021/09/20 03:27:35;;;;;;;10.88;8.00;;;9.00;99.90;;;;;;5074770;28;20035;-76
2021/09/20 03:30:02;;;;;;;12.57;8.23;;;9.10;99.90;;;;;;5077754;28;20386;-76
2021/09/20 03:32:27;;;;;;;9.45;7.60;;;9.10;99.90;;;;;;5074766;28;20025;-76
2021/09/20 03:34:53;;;;;;;11.73;8.55;;;9.10;99.90;;;;;;5093330;28;20031;-76
2021/09/20 03:37:18;;;;;;;10.48;8.00;;;9.10;99.90;;;;;;5094158;28;20067;-76
2021/09/20 03:39:44;;;;;;;11.98;9.00;;;9.10;99.90;;;;;;5093485;28;20123;-76
2021/09/20 03:42:10;;;;;;;11.63;8.23;;;9.10;99.90;;;;;;5095816;28;20024;-77
2021/09/20 03:44:35;;;;;;;12.77;7.95;;;9.00;99.90;;;;;;5094407;28;20052;-77
2021/09/20 03:47:01;;;;;;;10.50;7.97;;;9.00;99.90;;;;;;5094780;28;20028;-77
2021/09/20 03:49:27;;;;;;;14.10;9.52;;;9.00;99.90;;;;;;5094928;28;20036;-76
2021/09/20 03:51:53;;;;;;;12.93;8.98;;;8.90;99.90;;;;;;5096310;28;20055;-76
2021/09/20 03:54:18;;;;;;;11.13;8.48;;;8.90;99.90;;;;;;5091625;28;20059;-76
2021/09/20 03:56:44;;;;;;;12.25;8.65;;;9.00;99.90;;;;;;5096023;28;20024;-76
2021/09/20 03:59:10;;;;;;;14.20;9.75;;;9.00;99.90;;;;;;5089625;28;20024;-76
2021/09/20 04:01:35;;;;;;;12.68;9.15;;;9.00;99.90;;;;;;5074550;28;20016;-77
2021/09/20 04:04:01;;;;;;;14.30;9.98;;;9.00;99.90;;;;;;5087669;28;20457;-76
2021/09/20 04:06:27;;;;;;;14.02;9.95;;;9.00;99.90;;;;;;5094453;28;20465;-77
2021/09/20 04:08:54;;;;;;;11.63;9.85;;;9.00;99.90;;;;;;5094583;28;20059;-76
2021/09/20 04:11:19;;;;;;;16.65;11.77;;;9.00;99.90;;;;;;5095861;28;20069;-76
2021/09/20 04:13:45;;;;;;;13.55;10.55;;;9.00;99.90;;;;;;5106298;28;20029;-76
2021/09/20 04:16:11;;;;;;;11.48;9.15;;;9.00;99.90;;;;;;5075432;28;20024;-76
2021/09/20 04:18:36;;;;;;;14.75;10.45;;;9.00;99.90;;;;;;5083296;28;20027;-76
2021/09/20 04:21:02;;;;;;;15.90;11.18;;;8.90;99.90;;;;;;5095211;28;20032;-76
2021/09/20 04:23:28;;;;;;;14.20;11.15;;;9.00;99.90;;;;;;5093159;28;20058;-76
2021/09/20 04:25:53;;;;;;;16.15;11.60;;;9.00;99.90;;;;;;5093588;28;20069;-76
2021/09/20 04:28:20;;;;;;;17.92;12.07;;;9.00;99.90;;;;;;5092248;28;20358;-76
2021/09/20 04:30:46;;;;;;;14.80;11.50;;;9.10;99.90;;;;;;5094339;28;20026;-76
2021/09/20 04:33:15;;;;;;;19.00;12.43;;;9.00;99.90;;;;;;5092751;28;20107;-76
2021/09/20 04:35:43;;;;;;;15.90;11.95;;;9.00;99.90;;;;;;5093813;28;20108;-76
2021/09/20 04:38:09;;;;;;;17.33;13.13;;;9.00;99.90;;;;;;5091442;28;20035;-76
2021/09/20 04:40:36;;;;;;;17.58;12.52;;;9.00;99.90;;;;;;5074825;28;20040;-76
2021/09/20 04:43:03;;;;;;;20.08;13.73;;;9.00;99.90;;;;;;5080415;28;20024;-76
2021/09/20 04:45:29;;;;;;;18.75;13.77;;;9.00;99.90;;;;;;5094214;28;20020;-76
2021/09/20 04:47:55;;;;;;;21.95;14.18;;;9.00;99.90;;;;;;5090418;28;20020;-76
2021/09/20 04:50:20;;;;;;;16.45;12.82;;;9.00;99.90;;;;;;5093775;28;20016;-76
2021/09/20 04:52:46;;;;;;;18.80;14.20;;;8.90;99.90;;;;;;5091059;28;20077;-76
2021/09/20 04:55:12;;;;;;;17.95;13.70;;;8.90;99.90;;;;;;5093749;28;20039;-77
2021/09/20 04:57:38;;;;;;;17.58;12.40;;;8.90;99.90;;;;;;5092299;28;20078;-76
2021/09/20 05:00:05;;;;;;;17.88;11.77;;;8.90;99.90;;;;;;5084259;28;20576;-77
2021/09/20 05:02:31;;;;;;;14.43;10.82;;;8.90;99.90;;;;;;5073333;28;20028;-76
2021/09/20 05:04:57;;;;;;;15.70;11.30;;;8.90;99.90;;;;;;5091981;28;20028;-77
2021/09/20 05:07:22;;;;;;;14.93;10.63;;;8.90;99.90;;;;;;5092816;28;20020;-77
2021/09/20 05:09:48;;;;;;;15.68;9.90;;;8.90;99.90;;;;;;5090643;28;20385;-76
2021/09/20 05:12:14;;;;;;;13.82;9.20;;;8.90;99.90;;;;;;5092531;28;20016;-77
2021/09/20 05:14:39;;;;;;;10.15;7.47;;;8.90;99.90;;;;;;5078728;28;20151;-76
2021/09/20 05:17:05;;;;;;;10.48;7.82;;;8.90;99.90;;;;;;5094545;28;20024;-76
2021/09/20 05:19:31;;;;;;;10.48;6.85;;;8.90;99.90;;;;;;5089986;28;20366;-76
2021/09/20 05:21:57;;;;;;;10.48;7.05;;;8.90;99.90;;;;;;5093205;28;20366;-76
2021/09/20 05:24:23;;;;;;;9.65;7.07;;;8.90;99.90;;;;;;5092588;28;20051;-76
2021/09/20 05:26:49;;;;;;;11.30;7.30;;;8.80;99.90;;;;;;5092856;28;20385;-77
2021/09/20 05:29:14;;;;;;;11.90;7.03;;;8.70;99.90;;;;;;5090461;28;20028;-76
2021/09/20 05:31:40;;;;;;;10.98;7.78;;;8.60;99.90;;;;;;5084777;28;20420;-76
2021/09/20 05:34:06;;;;;;;12.15;8.15;;;8.50;99.90;;;;;;5084670;28;20081;-76
2021/09/20 05:36:32;;;;;;;11.95;9.27;;;8.40;99.90;;;;;;5092729;28;20047;-76
2021/09/20 05:38:57;;;;;;;13.32;9.27;;;8.30;99.90;;;;;;5091301;28;20456;-76
2021/09/20 05:41:23;;;;;;;14.13;9.25;;;8.30;99.90;;;;;;5092586;28;20119;-76
2021/09/20 05:43:49;;;;;;;15.98;10.35;;;8.30;99.90;;;;;;5092950;28;20115;-76
2021/09/20 05:46:14;;;;;;;14.70;9.57;;;8.20;99.90;;;;;;5093599;28;20034;-77
2021/09/20 05:48:40;;;;;;;15.15;10.65;;;8.20;99.90;;;;;;5089589;28;20027;-76
2021/09/20 05:51:06;;;;;;;18.35;10.50;;;8.20;99.90;;;;;;5093919;28;20020;-76
2021/09/20 05:53:32;;;;;;;16.42;10.48;;;8.20;99.90;;;;;;5089843;28;20024;-75
2021/09/20 05:55:57;;;;;;;18.15;10.50;;;8.20;99.90;;;;;;5093878;28;20055;-76
2021/09/20 05:58:23;;;;;;;17.20;10.50;;;8.20;99.90;;;;;;5088887;28;20385;-76
2021/09/20 06:00:50;;;;;;;14.48;10.10;;;8.20;99.90;;;;;;5092260;28;20040;-76
2021/09/20 06:03:16;;;;;;;14.98;9.48;;;8.20;99.90;;;;;;5089651;28;20016;-76
2021/09/20 06:05:42;;;;;;;19.25;11.35;;;8.20;99.90;;;;;;5092775;28;20477;-76
2021/09/20 06:08:08;;;;;;;18.08;10.52;;;8.30;99.90;;;;;;5089370;28;20024;-76
2021/09/20 06:10:35;;;;;;;16.05;9.77;;;8.30;99.90;;;;;;5093695;28;20024;-76
2021/09/20 06:13:01;;;;;;;13.00;9.52;;;8.40;99.90;;;;;;5090658;28;20473;-76
2021/09/20 06:15:26;;;;;;;19.55;9.57;;;8.40;99.90;;;;;;5093461;28;20018;-76
2021/09/20 06:17:52;;;;;;;14.63;9.18;;;8.40;99.90;;;;;;5091707;28;20024;-76
2021/09/20 06:20:18;;;;;;;10.80;7.47;;;8.30;99.90;;;;;;5092106;28;20044;-76
2021/09/20 06:22:43;;;;;;;15.02;8.60;;;8.40;99.90;;;;;;5089973;28;20016;-75
2021/09/20 06:25:10;;;;;;;14.70;8.25;;;8.40;99.90;;;;;;5093196;28;20024;-77
2021/09/20 06:27:36;;;;;;;14.45;7.97;;;8.50;99.90;;;;;;5089399;28;20469;-76
2021/09/20 06:30:04;;;;;;;14.20;8.18;;;8.60;99.90;;;;;;5092856;28;20423;-76
2021/09/20 06:32:30;;;;;;;13.52;6.93;;;8.70;99.90;;;;;;5090747;28;20040;-76
2021/09/20 06:34:55;;;;;;;9.00;6.55;;;8.70;99.90;;;;;;5088282;28;20491;-76
2021/09/20 06:37:21;;;;;;;8.98;5.70;;;8.80;99.90;;;;;;5091717;28;20028;-76
2021/09/20 06:39:46;;;;;;;8.70;6.10;;;8.90;99.90;;;;;;5088774;28;20375;-76
2021/09/20 06:42:12;;;;;;;9.90;6.05;;;8.90;99.90;;;;;;5091429;28;20051;-77
2021/09/20 06:44:38;;;;;;;7.47;5.43;;;9.10;99.90;;;;;;5091789;28;20115;-76
2021/09/20 06:47:04;;;;;;;8.55;5.55;;;9.20;99.90;;;;;;5091713;28;20016;-76
2021/09/20 06:49:29;;;;;;;6.28;4.95;;;9.10;99.90;;;;;;5087880;28;20024;-76
2021/09/20 06:51:55;;;;;;;7.57;5.65;;;9.20;99.90;;;;;;5091718;28;20027;-75
2021/09/20 06:54:21;;;;;;;6.35;5.22;;;9.20;99.90;;;;;;5089245;28;20377;-76
2021/09/20 06:56:47;;;;;;;6.78;5.22;;;9.20;99.90;;;;;;5091767;28;20024;-76
2021/09/20 06:59:13;;;;;;;9.38;6.00;;;9.20;99.90;;;;;;5077793;28;20029;-76
2021/09/20 07:01:39;;;;;;;7.15;4.82;;;9.30;99.90;;;;;;5071294;28;20115;-76
2021/09/20 07:04:05;;;;;;;9.55;5.60;;;9.40;99.90;;;;;;5083498;28;20119;-76
2021/09/20 07:06:31;;;;;;;7.50;5.18;;;9.40;99.90;;;;;;5091214;28;20074;-76
2021/09/20 07:08:57;;;;;;;6.18;4.88;;;9.40;99.90;;;;;;5085570;28;20085;-76
2021/09/20 07:11:23;;;;;;;11.30;5.65;;;9.40;99.90;;;;;;5092323;28;20028;-76
2021/09/20 07:13:49;;;;;;;6.13;4.30;;;9.70;99.90;;;;;;5084227;28;20043;-76
2021/09/20 07:16:15;;;;;;;6.00;4.65;;;9.80;99.90;;;;;;5091493;28;20055;-76
2021/09/20 07:18:41;;;;;;;6.13;4.65;;;9.90;99.90;;;;;;5090346;28;20035;-76
2021/09/20 07:21:07;;;;;;;6.60;5.10;;;10.20;99.90;;;;;;5091270;28;20032;-76
2021/09/20 07:23:32;;;;;;;6.38;4.55;;;10.40;99.90;;;;;;5091823;28;20467;-76
2021/09/20 07:25:58;;;;;;;6.53;4.90;;;10.50;99.90;;;;;;5092693;28;20035;-77
2021/09/20 07:28:24;;;;;;;5.70;4.80;;;10.70;99.90;;;;;;5090323;28;20542;-76
2021/09/20 07:30:50;;;;;;;8.52;5.18;;;10.70;99.90;;;;;;5092549;28;20032;-76
2021/09/20 07:33:16;;;;;;;7.40;5.20;;;10.60;99.90;;;;;;5089540;28;20477;-77
2021/09/20 07:35:42;;;;;;;7.53;5.63;;;10.50;99.90;;;;;;5091075;28;20031;-76
2021/09/20 07:38:08;;;;;;;8.15;5.65;;;10.30;99.90;;;;;;5087599;28;20028;-76
2021/09/20 07:40:34;;;;;;;7.35;4.97;;;10.20;99.90;;;;;;5090626;28;20064;-76
2021/09/20 07:43:01;;;;;;;8.13;5.25;;;10.00;99.90;;;;;;5074960;28;20468;-76
2021/09/20 07:45:27;;;;;;;8.25;6.15;;;9.90;99.90;;;;;;5091162;28;20549;-76
2021/09/20 07:47:53;;;;;;;6.78;6.03;;;9.90;99.90;;;;;;5089866;28;20029;-76
2021/09/20 07:50:20;;;;;;;7.45;5.75;;;9.80;99.90;;;;;;5092472;28;20039;-77
2021/09/20 07:52:46;;;;;;;7.38;5.78;;;9.70;99.90;;;;;;5088393;28;20028;-76
2021/09/20 07:55:14;;;;;;;6.70;5.50;;;9.80;99.90;;;;;;5090855;28;20103;-76
2021/09/20 07:57:40;;;;;;;6.53;5.90;;;9.70;99.90;;;;;;5087941;28;20024;-76
2021/09/20 08:00:08;;;;;;;7.03;5.82;;;9.50;99.90;;;;;;5092230;28;20028;-77
2021/09/20 08:02:33;;;;;;;7.22;6.30;;;9.50;99.90;;;;;;5087080;28;20021;-76
2021/09/20 08:04:59;;;;;;;7.95;5.10;;;9.50;99.90;;;;;;5097211;28;20122;-76
2021/09/20 08:07:24;;;;;;;6.03;5.15;;;9.50;99.90;;;;;;5114945;28;20464;-77
2021/09/20 08:09:50;;;;;;;6.75;5.55;;;9.50;99.90;;;;;;5090282;28;20031;-76
2021/09/20 08:12:16;;;;;;;6.28;5.35;;;9.50;99.90;;;;;;5095653;28;20023;-77
2021/09/20 08:14:41;;;;;;;5.53;5.00;;;9.50;99.90;;;;;;5093784;28;20106;-76
2021/09/20 08:17:08;;;;;;;5.90;5.38;;;9.50;99.90;;;;;;5094492;28;20043;-76
2021/09/20 08:19:34;;;;;;;6.63;5.78;;;9.40;99.90;;;;;;5092897;28;20024;-76
2021/09/20 08:22:00;;;;;;;5.93;4.68;;;9.40;99.90;;;;;;5095656;28;20027;-77
2021/09/20 08:24:26;;;;;;;5.45;4.95;;;9.50;99.90;;;;;;5092932;28;20028;-76
2021/09/20 08:26:52;;;;;;;5.35;4.82;;;9.90;99.90;;;;;;5085896;28;20028;-76
2021/09/20 08:29:18;;;;;;;5.07;4.35;;;9.90;99.90;;;;;;5088463;28;20492;-76
2021/09/20 08:31:43;;;;;;;4.20;3.83;;;10.00;99.90;;;;;;5095480;28;20016;-77
2021/09/20 08:34:09;;;;;;;4.90;4.03;;;10.10;99.90;;;;;;5090099;28;20032;-76
2021/09/20 08:36:35;;;;;;;5.05;4.35;;;10.10;98.80;;;;;;5080919;28;20024;-76
2021/09/20 08:39:02;;;;;;;5.80;3.92;;;10.10;99.90;;;;;;5089506;28;20036;-76
2021/09/20 08:41:28;;;;;;;5.20;4.63;;;10.00;99.90;;;;;;5095140;28;20024;-76
2021/09/20 08:43:53;;;;;;;7.72;4.90;;;9.70;99.90;;;;;;5091602;28;20016;-76
2021/09/20 08:46:19;;;;;;;7.65;5.22;;;9.50;99.90;;;;;;5083634;28;20107;-77
2021/09/20 08:48:48;;;;;;;9.45;6.40;;;8.90;99.90;;;;;;5092140;28;20462;-76
2021/09/20 08:51:18;;;;;;;7.45;5.93;;;8.70;99.90;;;;;;5074704;28;20071;-76
2021/09/20 08:53:44;;;;;;;6.95;6.25;;;8.50;99.90;;;;;;5086571;28;20077;-76
2021/09/20 08:56:11;;;;;;;7.95;6.65;;;8.50;99.90;;;;;;5075241;28;20028;-76
2021/09/20 08:58:37;;;;;;;9.20;6.60;;;8.50;99.90;;;;;;5082745;28;20062;-76
2021/09/20 09:01:03;;;;;;;10.82;5.70;;;8.50;99.90;;;;;;5073363;28;20033;-76
2021/09/20 09:03:31;;;;;;;8.13;6.55;;;8.50;99.90;;;;;;5094187;28;20028;-76
2021/09/20 09:05:57;;;;;;;9.93;6.90;;;8.70;99.90;;;;;;5093553;28;20020;-77
2021/09/20 09:08:40;;;;;;;12.15;8.38;;;8.80;99.90;;;;;;5093997;28;20107;-76
2021/09/20 09:11:11;;;;;;;5.28;4.50;;;8.90;99.90;;;;;;5093423;28;20020;-76
2021/09/20 09:13:40;;;;;;;10.85;7.25;;;8.90;99.90;;;;;;5088727;28;20495;-76
2021/09/20 09:16:12;;;;;;;13.05;6.85;;;9.10;99.90;;;;;;5081245;28;20028;-76
2021/09/20 09:19:08;;;;;;;7.00;4.60;;;9.00;99.90;;;;;;5083774;28;20020;-76
2021/09/20 09:21:37;;;;;;;5.03;3.70;;;9.20;99.90;;;;;;5093069;28;20028;-77
2021/09/20 09:24:09;;;;;;;7.35;3.78;;;9.20;99.60;;;;;;5082499;28;20044;-76
2021/09/20 09:26:35;;;;;;;5.57;3.40;;;9.10;95.40;;;;;;5088681;28;20394;-76
2021/09/20 09:29:10;;;;;;;3.22;2.50;;;9.20;97.70;;;;;;5089457;28;20024;-76
2021/09/20 09:31:37;;;;;;;2.65;1.95;;;9.00;97.80;;;;;;5092913;28;20050;-76
2021/09/20 09:34:24;;;;;;;2.90;1.92;;;8.90;95.60;;;;;;5093213;28;20078;-76
2021/09/20 09:36:50;;;;;;;12.60;2.97;;;8.70;97.10;;;;;;5084607;28;20031;-76
2021/09/20 09:39:29;;;;;;;2.90;2.17;;;8.70;98.40;;;;;;5085509;28;20066;-76
2021/09/20 09:41:56;;;;;;;3.80;1.90;;;8.60;99.90;;;;;;5073824;28;20020;-76
2021/09/20 09:44:31;;;;;;;2.38;1.80;;;8.50;99.90;;;;;;5077544;28;20055;-76
2021/09/20 09:46:57;;;;;;;2.15;1.70;;;8.50;99.90;;;;;;5073485;28;20024;-76
2021/09/20 09:49:24;;;;;;;4.40;3.53;;;8.60;99.90;;;;;;5080718;28;20441;-76
2021/09/20 09:52:12;;;;;;;1.95;1.70;;;8.70;99.90;;;;;;5092740;28;20012;-76
2021/09/20 09:54:41;;;;;;;2.03;1.67;;;8.50;99.90;;;;;;5080724;28;20502;-76
2021/09/20 09:57:11;;;;;;;7.30;1.50;;;8.40;99.90;;;;;;5090891;28;20500;-76
2021/09/20 09:59:38;;;;;;;2.55;2.15;;;8.40;99.90;;;;;;5088617;28;20040;-77
2021/09/20 10:02:27;;;;;;;2.47;2.00;;;8.60;99.90;;;;;;5088322;28;20115;-76
2021/09/20 10:04:56;;;;;;;2.17;2.08;;;8.80;99.90;;;;;;5092009;28;20024;-76
2021/09/20 10:07:30;;;;;;;2.53;1.88;;;8.90;99.90;;;;;;5089961;28;20049;-76
2021/09/20 10:09:57;;;;;;;2.35;1.73;;;9.00;99.30;;;;;;5085442;28;20103;-76
2021/09/20 10:12:26;;;;;;;3.28;1.77;;;9.10;95.10;;;;;;5080939;28;20020;-76
2021/09/20 10:14:56;;;;;;;2.58;2.10;;;9.10;93.30;;;;;;5091778;28;20543;-76
2021/09/20 10:17:23;;;;;;;1.73;1.50;;;9.00;97.70;;;;;;5091942;28;20020;-76
2021/09/20 10:19:49;;;;;;;13.98;8.57;;;9.00;95.60;;;;;;5091470;28;20039;-76
2021/09/20 10:22:15;;;;;;;5.82;3.03;;;9.10;96.20;;;;;;5092837;28;20373;-76
2021/09/20 10:24:43;;;;;;;2.58;1.55;;;9.20;97.80;;;;;;5092503;28;20020;-76
2021/09/20 10:27:12;;;;;;;3.10;1.98;;;9.10;94.50;;;;;;5091565;28;20390;-76
2021/09/20 10:29:40;;;;;;;1.92;1.63;;;9.30;95.40;;;;;;5089769;28;20118;-77
2021/09/20 10:32:06;;;;;;;1.88;1.75;;;9.20;97.10;;;;;;5086089;28;20030;-76
2021/09/20 10:34:32;;;;;;;3.47;2.05;;;9.30;97.70;;;;;;5086049;28;20039;-76
2021/09/20 10:37:03;;;;;;;3.35;2.15;;;9.40;95.10;;;;;;5073054;28;20024;-76
2021/09/20 10:39:42;;;;;;;2.42;1.63;;;9.40;94.20;;;;;;5081426;28;20123;-76
2021/09/20 10:42:10;;;;;;;6.50;2.20;;;9.30;93.50;;;;;;5092030;28;20094;-76
2021/09/20 10:44:40;;;;;;;3.22;2.35;;;9.30;95.00;;;;;;5090939;28;20081;-76
2021/09/20 10:47:14;;;;;;;1.83;1.30;;;9.30;92.50;;;;;;5091221;28;20047;-76
2021/09/20 10:49:50;;;;;;;2.75;1.35;;;9.30;92.10;;;;;;5092973;28;20063;-76
2021/09/20 10:52:17;;;;;;;8.15;3.15;;;9.40;93.90;;;;;;5091682;28;20016;-76
2021/09/20 10:55:06;;;;;;;2.00;1.65;;;9.50;93.70;;;;;;5092198;28;20161;-76
2021/09/20 10:57:32;;;;;;;3.75;2.58;;;9.50;91.10;;;;;;5093048;28;20027;-76
2021/09/20 11:00:20;;;;;;;3.10;1.48;;;9.40;92.70;;;;;;5091972;28;20044;-77
2021/09/20 11:02:46;;;;;;;3.95;1.95;;;9.60;93.90;;;;;;5091686;28;20027;-76
2021/09/20 11:05:12;;;;;;;2.95;2.17;;;9.60;93.70;;;;;;5091940;28;20028;-76
2021/09/20 11:07:49;;;;;;;1.83;1.73;;;9.50;93.40;;;;;;5090411;28;20028;-76
2021/09/20 11:10:16;;;;;;;1.98;1.65;;;9.50;93.00;;;;;;5091560;28;20432;-76
2021/09/20 11:13:02;;;;;;;1.30;1.20;;;9.60;93.30;;;;;;5090356;28;20109;-76
2021/09/20 11:15:36;;;;;;;3.20;2.10;;;9.60;91.80;;;;;;5091493;28;20482;-76
2021/09/20 11:18:01;;;;;;;2.25;1.92;;;9.70;93.00;;;;;;5090636;28;20020;-76
2021/09/20 11:20:29;;;;;;;3.75;2.33;;;9.90;93.00;;;;;;5091438;28;20397;-77
2021/09/20 11:23:36;;;;;;;10.63;3.05;;;10.10;91.70;;;;;;5091393;28;20103;-76
2021/09/20 11:26:15;;;;;;;1.95;1.75;;;10.20;90.20;;;;;;5089882;28;20097;-77
2021/09/20 11:28:49;;;;;;;3.45;2.65;;;10.60;88.80;;;;;;5090463;28;20077;-76
2021/09/20 11:31:15;;;;;;;3.45;2.25;;;10.60;86.40;;;;;;5092993;28;20081;-76
2021/09/20 11:33:45;;;;;;;2.13;1.92;;;10.60;85.90;;;;;;5090392;28;20024;-76
2021/09/20 11:36:29;;;;;;;2.67;2.10;;;10.70;85.70;;;;;;5091354;28;20473;-76
2021/09/20 11:39:18;;;;;;;2.05;1.83;;;10.60;87.80;;;;;;5092871;28;20060;-76
2021/09/20 11:41:47;;;;;;;3.80;2.50;;;10.30;89.40;;;;;;5096443;28;20036;-77
2021/09/20 11:44:25;;;;;;;3.38;2.50;;;10.10;90.20;;;;;;5094210;28;20430;-76
2021/09/20 11:46:50;;;;;;;3.38;2.10;;;10.00;89.10;;;;;;5096504;28;20034;-76
2021/09/20 11:49:17;;;;;;;3.75;2.00;;;10.00;92.20;;;;;;5094161;28;20012;-77
2021/09/20 11:51:43;;;;;;;2.22;2.08;;;9.90;92.90;;;;;;5094506;28;20111;-76
2021/09/20 11:54:26;;;;;;;3.97;2.28;;;9.80;94.30;;;;;;5093755;28;20024;-76
2021/09/20 11:56:52;;;;;;;3.88;2.63;;;9.80;94.40;;;;;;5094880;28;20031;-76
2021/09/20 11:59:18;;;;;;;8.30;2.45;;;9.80;95.20;;;;;;5094333;28;20020;-76
2021/09/20 12:01:43;;;;;;;6.03;2.85;;;9.90;97.20;;;;;;5095595;28;20103;-77
2021/09/20 12:04:09;;;;;;;2.22;2.03;;;9.80;96.10;;;;;;5093715;28;20509;-76
2021/09/20 12:06:34;;;;;;;3.00;2.28;;;9.80;99.10;;;;;;5094682;28;20389;-77
2021/09/20 12:09:03;;;;;;;5.43;2.95;;;9.80;99.10;;;;;;5094629;28;20063;-76
2021/09/20 12:11:29;;;;;;;4.15;3.28;;;9.90;99.90;;;;;;5095894;28;20055;-76
2021/09/20 12:13:56;;;;;;;6.25;3.90;;;9.90;99.90;;;;;;5094708;28;20027;-76
2021/09/20 12:16:25;;;;;;;4.20;3.50;;;9.80;99.90;;;;;;5094407;28;20020;-76
2021/09/20 12:18:50;;;;;;;4.20;3.38;;;9.70;99.90;;;;;;5093601;28;20024;-76
2021/09/20 12:21:18;;;;;;;7.20;3.75;;;9.60;99.90;;;;;;5094234;28;20040;-77
2021/09/20 12:23:48;;;;;;;4.80;4.05;;;9.60;99.90;;;;;;5093013;28;20074;-76
2021/09/20 12:26:23;;;;;;;9.20;4.40;;;9.50;99.90;;;;;;5094089;28;20595;-76
2021/09/20 12:28:50;;;;;;;5.88;4.68;;;9.50;99.90;;;;;;5092999;28;20024;-76
2021/09/20 12:31:22;;;;;;;6.40;4.00;;;9.60;99.90;;;;;;5095359;28;20538;-76
2021/09/20 12:33:49;;;;;;;6.55;4.10;;;9.50;99.90;;;;;;5093229;28;20024;-76
2021/09/20 12:36:34;;;;;;;5.43;4.05;;;9.40;99.90;;;;;;5079130;28;20029;-76
2021/09/20 12:39:09;;;;;;;8.55;4.28;;;9.40;99.90;;;;;;5093211;28;20036;-76
2021/09/20 12:41:47;;;;;;;4.88;3.80;;;9.30;99.90;;;;;;5093885;28;20043;-76
2021/09/20 12:44:27;;;;;;;7.40;4.63;;;9.40;99.90;;;;;;5093305;28;20023;-76
2021/09/20 12:47:03;;;;;;;8.30;5.05;;;9.50;99.90;;;;;;5094025;28;20381;-76
2021/09/20 12:49:29;;;;;;;5.72;4.65;;;9.60;99.90;;;;;;5093022;28;20488;-76